Time;durP1;ratioP1;P1;durP2;ratioP2;P2;SDS_P1;SDS_P2;PMS_P1;PMS_P2;Temp;Humidity;BMP_temperature;BMP_pressure;BME280_temperature;BME280_humidity;BME280_pressure;Samples;Min_cycle;Max_cycle;Signal;HPM_P1;HPM_P2
2022/01/10 00:00:55;;;;;;;16.87;12.27;;;4.60;99.90;;;;;;2610177;51;20411;-80
2022/01/10 00:03:23;;;;;;;17.50;13.67;;;4.90;99.90;;;;;;2612024;47;20431;-79
2022/01/10 00:05:49;;;;;;;22.97;13.40;;;5.00;99.90;;;;;;2612335;47;21120;-81
2022/01/10 00:08:15;;;;;;;25.80;14.13;;;4.70;99.90;;;;;;2612518;47;20391;-80
2022/01/10 00:10:43;;;;;;;21.30;13.53;;;4.80;99.90;;;;;;2611376;54;20415;-79
2022/01/10 00:13:09;;;;;;;25.83;14.23;;;4.50;99.90;;;;;;2612570;47;20420;-79
2022/01/10 00:15:35;;;;;;;17.57;13.90;;;4.30;99.90;;;;;;2612647;54;20952;-79
2022/01/10 00:18:01;;;;;;;25.77;15.70;;;4.10;99.90;;;;;;2613307;54;20484;-79
2022/01/10 00:20:27;;;;;;;23.83;13.47;;;4.10;99.90;;;;;;2612412;47;20424;-80
2022/01/10 00:22:53;;;;;;;27.73;14.83;;;4.30;99.90;;;;;;2613929;54;20416;-78
2022/01/10 00:25:21;;;;;;;25.43;14.90;;;4.00;99.90;;;;;;2611312;54;20944;-78
2022/01/10 00:27:49;;;;;;;24.13;13.47;;;4.10;99.90;;;;;;2613186;54;20396;-79
2022/01/10 00:30:16;;;;;;;28.07;15.30;;;4.20;99.90;;;;;;2614498;54;20407;-80
2022/01/10 00:32:43;;;;;;;22.63;16.00;;;4.30;99.90;;;;;;2613443;47;20419;-79
2022/01/10 00:35:10;;;;;;;22.47;13.90;;;4.00;99.90;;;;;;2612560;47;20427;-80
2022/01/10 00:37:39;;;;;;;23.50;13.23;;;3.90;99.90;;;;;;2613540;54;20424;-80
2022/01/10 00:40:06;;;;;;;35.67;15.50;;;3.90;99.90;;;;;;2611597;47;20987;-80
2022/01/10 00:42:32;;;;;;;27.77;15.67;;;3.70;99.90;;;;;;2611493;54;20423;-78
2022/01/10 00:45:01;;;;;;;19.67;15.43;;;3.90;99.90;;;;;;2612662;54;20419;-80
2022/01/10 00:47:29;;;;;;;27.10;13.67;;;3.80;99.90;;;;;;2613509;47;20420;-80
2022/01/10 00:49:54;;;;;;;24.60;15.23;;;3.70;99.90;;;;;;2613338;46;20474;-79
2022/01/10 00:52:21;;;;;;;24.37;14.70;;;3.60;99.90;;;;;;2612443;54;20388;-79
2022/01/10 00:54:48;;;;;;;28.00;16.10;;;3.20;99.90;;;;;;2612650;48;20724;-79
2022/01/10 00:57:14;;;;;;;28.10;15.80;;;2.90;99.90;;;;;;2614489;54;20979;-81
2022/01/10 00:59:40;;;;;;;29.67;17.27;;;2.80;99.90;;;;;;2611575;47;20472;-78
2022/01/10 01:02:06;;;;;;;24.30;17.33;;;2.70;99.90;;;;;;2611993;47;20411;-79
2022/01/10 01:04:32;;;;;;;28.00;15.50;;;2.60;99.90;;;;;;2613007;47;20159;-78
2022/01/10 01:06:57;;;;;;;24.13;14.17;;;2.70;99.90;;;;;;2612954;47;20419;-80
2022/01/10 01:09:28;;;;;;;24.83;13.93;;;2.70;99.90;;;;;;2612649;47;20518;-81
2022/01/10 01:12:16;;;;;;;25.40;16.30;;;2.60;99.90;;;;;;2612480;54;20399;-80
2022/01/10 01:17:12;;;;;;;26.37;15.23;;;2.60;99.90;;;;;;2613052;39;20958;-79
2022/01/10 01:25:21;;;;;;;26.57;17.03;;;3.00;99.90;;;;;;2610811;54;20431;-79
2022/01/10 01:27:50;;;;;;;32.47;15.40;;;3.20;99.90;;;;;;2611362;47;20450;-80
2022/01/10 01:30:16;;;;;;;28.53;17.90;;;2.90;99.90;;;;;;2609644;54;20418;-80
2022/01/10 01:32:42;;;;;;;25.87;16.47;;;2.90;99.90;;;;;;2610854;39;20842;-78
2022/01/10 01:35:08;;;;;;;28.03;16.23;;;3.10;99.90;;;;;;2611378;54;20150;-80
2022/01/10 01:37:37;;;;;;;26.07;15.80;;;3.00;99.90;;;;;;2612450;54;20150;-79
2022/01/10 01:40:08;;;;;;;22.73;17.13;;;3.10;99.90;;;;;;2610494;54;20954;-79
2022/01/10 01:42:40;;;;;;;36.57;18.27;;;3.00;99.90;;;;;;2611308;54;20566;-79
2022/01/10 01:45:11;;;;;;;30.60;17.00;;;2.80;99.90;;;;;;2611803;54;20428;-79
2022/01/10 01:47:39;;;;;;;23.03;14.63;;;2.90;99.90;;;;;;2612444;46;20439;-80
2022/01/10 01:50:12;;;;;;;27.03;15.13;;;2.90;99.90;;;;;;2610694;54;20435;-79
2022/01/10 01:52:38;;;;;;;23.50;14.90;;;2.50;99.90;;;;;;2610481;47;20419;-79
2022/01/10 01:55:05;;;;;;;25.27;16.47;;;2.30;99.90;;;;;;2612527;39;20924;-79
2022/01/10 01:57:32;;;;;;;28.03;15.10;;;2.20;99.90;;;;;;2611611;47;21706;-79
2022/01/10 01:59:58;;;;;;;27.53;15.57;;;2.30;99.90;;;;;;2612356;54;21089;-80
2022/01/10 02:02:24;;;;;;;25.83;15.70;;;2.10;99.90;;;;;;2612151;54;20443;-80
2022/01/10 02:04:50;;;;;;;23.50;16.93;;;2.00;99.90;;;;;;2613008;47;20431;-81
2022/01/10 02:07:19;;;;;;;26.23;15.60;;;2.40;99.90;;;;;;2613589;54;20199;-80
2022/01/10 02:09:45;;;;;;;25.93;16.23;;;2.60;99.90;;;;;;2611911;52;20474;-81
2022/01/10 02:12:11;;;;;;;32.53;16.87;;;2.50;99.90;;;;;;2611111;39;20814;-80
2022/01/10 02:14:40;;;;;;;21.77;15.67;;;2.40;99.90;;;;;;2612303;39;20995;-81
2022/01/10 02:17:06;;;;;;;23.87;15.83;;;2.30;99.90;;;;;;2613793;47;21000;-81
2022/01/10 02:19:39;;;;;;;26.77;15.07;;;2.40;99.90;;;;;;2611704;46;20411;-79
2022/01/10 02:22:05;;;;;;;29.13;18.30;;;2.30;99.90;;;;;;2611591;47;20422;-80
2022/01/10 02:24:54;;;;;;;27.47;15.37;;;2.40;99.90;;;;;;2613075;47;20957;-78
2022/01/10 02:27:24;;;;;;;29.73;16.40;;;2.50;99.90;;;;;;2613218;51;20468;-80
2022/01/10 02:29:51;;;;;;;24.47;17.30;;;2.40;99.90;;;;;;2610739;47;20452;-80
2022/01/10 02:32:19;;;;;;;29.20;16.43;;;2.00;99.90;;;;;;2612168;47;20423;-80
2022/01/10 02:34:45;;;;;;;29.83;17.07;;;2.00;99.90;;;;;;2611955;39;20828;-79
2022/01/10 02:37:27;;;;;;;25.27;16.90;;;2.00;99.90;;;;;;2612446;54;20510;-81
2022/01/10 02:39:55;;;;;;;32.80;17.33;;;2.10;99.90;;;;;;2610360;47;20178;-80
2022/01/10 02:42:22;;;;;;;28.93;18.77;;;2.00;99.90;;;;;;2606701;47;21103;-78
2022/01/10 02:44:47;;;;;;;26.57;17.47;;;2.10;99.90;;;;;;2612647;49;20438;-79
2022/01/10 02:47:14;;;;;;;25.43;17.53;;;2.10;99.90;;;;;;2613210;47;20162;-80
2022/01/10 02:49:40;;;;;;;28.03;16.80;;;2.00;99.90;;;;;;2611358;54;20751;-80
2022/01/10 02:52:06;;;;;;;32.23;17.37;;;1.90;99.90;;;;;;2611052;47;20424;-79
2022/01/10 02:54:34;;;;;;;26.30;16.00;;;1.70;99.90;;;;;;2613020;47;20450;-79
2022/01/10 02:57:06;;;;;;;27.43;16.83;;;1.90;99.90;;;;;;2612288;54;20543;-80
2022/01/10 02:59:36;;;;;;;30.87;17.50;;;1.90;99.90;;;;;;2611959;54;20456;-81
2022/01/10 03:02:03;;;;;;;21.40;15.90;;;2.00;99.90;;;;;;2610990;47;20171;-79
2022/01/10 03:04:29;;;;;;;30.97;17.33;;;2.00;99.90;;;;;;2610750;47;20422;-78
2022/01/10 03:06:54;;;;;;;25.30;16.70;;;2.10;99.90;;;;;;2613174;39;20827;-80
2022/01/10 03:09:20;;;;;;;28.97;18.27;;;2.00;99.90;;;;;;2611788;51;20175;-82
2022/01/10 03:11:47;;;;;;;32.97;17.90;;;2.00;99.90;;;;;;2612741;47;20387;-79
2022/01/10 03:14:13;;;;;;;26.13;16.00;;;1.80;99.90;;;;;;2612441;54;20431;-81
2022/01/10 03:16:40;;;;;;;26.37;16.40;;;1.70;99.90;;;;;;2612514;51;20428;-80
2022/01/10 03:19:06;;;;;;;32.20;16.00;;;1.70;99.90;;;;;;2610006;47;20432;-79
2022/01/10 03:21:33;;;;;;;27.20;17.50;;;1.60;99.90;;;;;;2612654;54;20433;-79
2022/01/10 03:23:59;;;;;;;29.70;16.30;;;1.60;99.90;;;;;;2612578;39;21035;-79
2022/01/10 03:26:26;;;;;;;29.10;16.80;;;1.60;99.90;;;;;;2611289;54;20411;-80
2022/01/10 03:28:55;;;;;;;27.33;16.53;;;1.50;99.90;;;;;;2609890;54;20404;-80
2022/01/10 03:31:21;;;;;;;31.03;16.30;;;1.50;99.90;;;;;;2610732;54;20498;-81
2022/01/10 03:33:47;;;;;;;23.23;14.80;;;1.50;99.90;;;;;;2612209;47;20503;-80
2022/01/10 03:36:13;;;;;;;32.20;15.50;;;1.40;99.90;;;;;;2612505;47;20439;-79
2022/01/10 03:38:40;;;;;;;30.20;16.80;;;1.60;99.90;;;;;;2612005;47;20435;-79
2022/01/10 03:41:06;;;;;;;26.07;16.50;;;1.60;99.90;;;;;;2610012;47;21031;-79
2022/01/10 03:43:33;;;;;;;24.03;14.87;;;1.60;99.90;;;;;;2612634;54;20426;-79
2022/01/10 03:45:59;;;;;;;31.87;18.57;;;1.70;99.90;;;;;;2610545;54;21087;-79
2022/01/10 03:48:25;;;;;;;29.57;16.50;;;1.70;99.90;;;;;;2610180;47;20450;-80
2022/01/10 03:50:51;;;;;;;36.77;16.60;;;1.50;99.90;;;;;;2612735;47;20181;-80
2022/01/10 03:53:17;;;;;;;25.50;15.97;;;1.70;99.90;;;;;;2611580;47;20399;-80
2022/01/10 03:55:44;;;;;;;29.53;17.60;;;1.60;99.90;;;;;;2612401;47;20418;-79
2022/01/10 03:58:10;;;;;;;26.17;16.97;;;1.60;99.90;;;;;;2612739;39;20843;-82
2022/01/10 04:00:36;;;;;;;25.60;18.40;;;1.50;99.90;;;;;;2611290;51;20455;-81
2022/01/10 04:03:05;;;;;;;25.70;16.97;;;1.40;99.90;;;;;;2611235;54;20479;-80
2022/01/10 04:05:50;;;;;;;27.70;16.00;;;1.40;99.90;;;;;;2612126;51;20170;-81
2022/01/10 04:08:17;;;;;;;21.90;15.03;;;1.70;99.90;;;;;;2611136;39;20839;-80
2022/01/10 04:10:44;;;;;;;24.30;15.63;;;1.50;99.90;;;;;;2611519;48;20419;-81
2022/01/10 04:13:11;;;;;;;21.67;16.07;;;1.50;99.90;;;;;;2609937;47;20166;-80
2022/01/10 04:15:37;;;;;;;24.50;15.33;;;1.70;99.90;;;;;;2613161;54;20425;-79
2022/01/10 04:18:03;;;;;;;25.30;17.73;;;1.60;99.90;;;;;;2610269;46;20943;-79
2022/01/10 04:20:30;;;;;;;30.23;15.90;;;1.50;99.90;;;;;;2612969;47;20407;-81
2022/01/10 04:22:57;;;;;;;28.10;16.23;;;1.30;99.90;;;;;;2613536;54;20485;-79
2022/01/10 04:25:23;;;;;;;27.90;17.17;;;1.10;99.90;;;;;;2612991;54;20447;-82
2022/01/10 04:27:50;;;;;;;22.73;15.97;;;1.30;99.90;;;;;;2613668;39;20723;-80
2022/01/10 04:30:23;;;;;;;21.80;15.60;;;0.90;99.90;;;;;;2609978;47;20423;-81
2022/01/10 04:32:50;;;;;;;31.30;17.70;;;0.80;99.90;;;;;;2613073;54;20482;-80
2022/01/10 04:35:17;;;;;;;27.83;16.80;;;0.80;99.90;;;;;;2612831;47;20467;-81
2022/01/10 04:37:42;;;;;;;24.73;16.93;;;0.70;99.90;;;;;;2612019;47;20418;-79
2022/01/10 04:40:10;;;;;;;40.60;18.77;;;0.70;99.90;;;;;;2614501;39;20860;-78
2022/01/10 04:42:36;;;;;;;32.00;17.13;;;0.70;99.90;;;;;;2612259;51;20518;-80
2022/01/10 04:45:02;;;;;;;26.90;16.13;;;0.70;99.90;;;;;;2612035;54;20919;-80
2022/01/10 04:47:28;;;;;;;28.57;17.00;;;0.70;99.90;;;;;;2612726;47;21003;-81
2022/01/10 04:52:23;;;;;;;22.63;15.83;;;0.80;99.90;;;;;;2613578;54;20416;-80
2022/01/10 04:54:49;;;;;;;28.13;17.67;;;1.00;99.90;;;;;;2611409;54;20538;-80
2022/01/10 04:57:15;;;;;;;31.40;18.37;;;1.00;99.90;;;;;;2614699;39;20462;-80
2022/01/10 04:59:41;;;;;;;29.93;17.03;;;1.10;99.90;;;;;;2611743;47;20755;-79
2022/01/10 05:02:08;;;;;;;32.10;17.50;;;1.20;99.90;;;;;;2613783;46;20477;-79
2022/01/10 05:04:34;;;;;;;28.40;16.93;;;1.20;99.90;;;;;;2614674;54;20419;-81
2022/01/10 05:07:00;;;;;;;30.90;16.97;;;1.70;99.90;;;;;;2612329;54;20961;-80
2022/01/10 05:09:26;;;;;;;26.63;17.97;;;1.80;99.90;;;;;;2611687;47;20419;-79
2022/01/10 05:12:02;;;;;;;26.33;18.40;;;1.80;99.90;;;;;;2612290;39;20807;-79
2022/01/10 05:14:29;;;;;;;23.67;16.40;;;1.60;99.90;;;;;;2612051;47;21007;-81
2022/01/10 05:16:55;;;;;;;31.80;18.70;;;1.60;99.90;;;;;;2613615;47;20494;-79
2022/01/10 05:19:20;;;;;;;30.93;18.67;;;1.50;99.90;;;;;;2613963;51;21074;-79
2022/01/10 05:21:46;;;;;;;33.77;19.37;;;1.10;99.90;;;;;;2612417;47;20438;-81
2022/01/10 05:24:12;;;;;;;41.27;18.30;;;1.50;99.90;;;;;;2613483;47;21360;-81
2022/01/10 05:26:38;;;;;;;36.40;18.50;;;1.30;99.90;;;;;;2613029;54;20167;-81
2022/01/10 05:29:05;;;;;;;27.70;16.67;;;1.20;99.90;;;;;;2612282;46;20423;-81
2022/01/10 05:31:34;;;;;;;35.10;18.10;;;1.20;99.90;;;;;;2613754;54;20467;-81
2022/01/10 05:34:23;;;;;;;39.13;19.40;;;1.30;99.90;;;;;;2613026;54;20431;-79
2022/01/10 05:36:49;;;;;;;23.00;16.60;;;1.50;99.90;;;;;;2614093;54;20408;-82
2022/01/10 05:39:17;;;;;;;33.30;18.97;;;1.30;99.90;;;;;;2613664;47;20419;-80
2022/01/10 05:41:43;;;;;;;34.90;17.80;;;1.20;99.90;;;;;;2613629;54;20422;-80
2022/01/10 05:44:08;;;;;;;30.70;17.83;;;1.10;99.90;;;;;;2611552;39;21300;-78
2022/01/10 05:46:38;;;;;;;26.10;16.43;;;0.90;99.90;;;;;;2612635;47;20948;-79
2022/01/10 05:49:07;;;;;;;25.17;15.00;;;0.80;99.90;;;;;;2614746;47;20435;-79
2022/01/10 05:51:36;;;;;;;29.53;19.20;;;0.90;99.90;;;;;;2612896;51;20450;-81
2022/01/10 05:54:19;;;;;;;41.00;19.13;;;1.20;99.90;;;;;;2613003;39;20779;-80
2022/01/10 05:56:46;;;;;;;21.40;16.63;;;1.10;99.90;;;;;;2612485;46;20461;-78
2022/01/10 05:59:13;;;;;;;39.33;19.50;;;0.90;99.90;;;;;;2612906;54;20391;-81
2022/01/10 06:01:39;;;;;;;27.47;18.00;;;1.10;99.90;;;;;;2612818;47;20391;-80
2022/01/10 06:04:13;;;;;;;29.57;20.03;;;1.20;99.90;;;;;;2613276;54;20416;-79
2022/01/10 06:06:42;;;;;;;33.17;20.40;;;1.20;99.90;;;;;;2613209;47;20430;-81
2022/01/10 06:09:07;;;;;;;33.03;19.93;;;1.40;99.90;;;;;;2613754;54;20396;-81
2022/01/10 06:11:35;;;;;;;39.20;20.70;;;1.40;99.90;;;;;;2612798;47;21252;-81
2022/01/10 06:14:03;;;;;;;42.53;22.57;;;1.20;99.90;;;;;;2612845;47;20438;-81
2022/01/10 06:16:29;;;;;;;35.93;19.77;;;1.20;99.90;;;;;;2613355;54;20510;-80
2022/01/10 06:18:57;;;;;;;28.00;19.37;;;1.30;99.90;;;;;;2613949;51;20395;-83
2022/01/10 06:21:22;;;;;;;33.57;19.60;;;1.10;99.90;;;;;;2612831;47;20415;-85
2022/01/10 06:23:49;;;;;;;35.50;20.20;;;0.90;99.90;;;;;;2613363;54;20447;-80
2022/01/10 06:26:18;;;;;;;31.30;19.87;;;0.80;99.90;;;;;;2609099;47;20468;-81
2022/01/10 06:28:44;;;;;;;37.60;20.83;;;0.80;99.90;;;;;;2610923;39;20805;-80
2022/01/10 06:31:11;;;;;;;29.40;18.87;;;0.90;99.90;;;;;;2608937;54;20954;-84
2022/01/10 06:33:56;;;;;;;35.97;19.87;;;1.20;99.90;;;;;;2609802;54;20443;-78
2022/01/10 06:36:22;;;;;;;29.47;19.33;;;0.90;99.90;;;;;;2606186;47;20469;-81
2022/01/10 06:38:51;;;;;;;34.70;18.97;;;0.80;99.90;;;;;;2610229;50;20437;-79
2022/01/10 06:41:17;;;;;;;29.37;19.43;;;0.60;99.90;;;;;;2609071;39;20995;-79
2022/01/10 06:43:45;;;;;;;33.10;19.07;;;0.60;99.90;;;;;;2609661;47;20446;-80
2022/01/10 06:46:12;;;;;;;35.73;19.40;;;0.90;99.90;;;;;;2607937;47;20435;-78
2022/01/10 06:48:40;;;;;;;31.23;17.33;;;1.10;99.90;;;;;;2605963;47;21165;-79
2022/01/10 06:51:05;;;;;;;24.50;18.87;;;0.90;99.90;;;;;;2607252;47;20410;-77
2022/01/10 06:53:32;;;;;;;24.37;19.23;;;1.10;99.90;;;;;;2608756;47;20446;-78
2022/01/10 06:56:00;;;;;;;32.47;19.53;;;0.90;99.90;;;;;;2609760;54;20434;-80
2022/01/10 06:58:26;;;;;;;34.60;18.93;;;0.80;99.90;;;;;;2607724;51;20426;-77
2022/01/10 07:00:53;;;;;;;33.33;19.07;;;0.90;99.90;;;;;;2608777;54;21645;-80
2022/01/10 07:03:19;;;;;;;28.20;20.10;;;0.70;99.90;;;;;;2610523;54;20927;-81
2022/01/10 07:05:58;;;;;;;36.23;20.13;;;0.90;99.90;;;;;;2611323;31;20939;-80
2022/01/10 07:08:24;;;;;;;34.57;19.30;;;0.90;99.90;;;;;;2611062;47;20409;-81
2022/01/10 07:11:01;;;;;;;25.83;18.77;;;1.20;99.90;;;;;;2610637;54;21339;-82
2022/01/10 07:13:29;;;;;;;34.10;19.63;;;1.30;99.90;;;;;;2611998;47;20431;-82
2022/01/10 07:15:57;;;;;;;30.90;20.10;;;1.00;99.90;;;;;;2609565;47;20420;-80
2022/01/10 07:18:23;;;;;;;28.20;18.17;;;0.80;99.90;;;;;;2609107;47;21159;-80
2022/01/10 07:20:52;;;;;;;40.97;20.90;;;0.90;99.90;;;;;;2610674;47;20456;-81
2022/01/10 07:23:19;;;;;;;40.53;21.70;;;1.00;99.90;;;;;;2610041;47;20490;-79
2022/01/10 07:25:45;;;;;;;30.70;18.67;;;1.10;99.90;;;;;;2611665;54;20471;-82
2022/01/10 07:28:11;;;;;;;33.00;18.67;;;1.20;99.90;;;;;;2610447;54;20387;-80
2022/01/10 07:30:37;;;;;;;36.97;20.20;;;1.00;99.90;;;;;;2610541;47;20436;-81
2022/01/10 07:33:03;;;;;;;35.40;19.67;;;1.20;99.90;;;;;;2609357;54;20150;-80
2022/01/10 07:35:29;;;;;;;31.03;19.50;;;1.30;99.90;;;;;;2608949;51;20515;-81
2022/01/10 07:37:55;;;;;;;27.93;19.10;;;1.20;99.90;;;;;;2611046;39;20809;-79
2022/01/10 07:40:21;;;;;;;26.60;19.67;;;1.50;99.90;;;;;;2609794;47;20431;-80
2022/01/10 07:42:48;;;;;;;30.73;19.57;;;1.40;99.90;;;;;;2606776;47;20167;-81
2022/01/10 07:45:22;;;;;;;23.00;16.43;;;1.00;99.90;;;;;;2606476;39;20458;-81
2022/01/10 07:47:48;;;;;;;30.80;20.70;;;1.10;99.90;;;;;;2607457;54;20498;-79
2022/01/10 07:50:14;;;;;;;29.17;20.00;;;0.90;99.90;;;;;;2609723;54;20502;-81
2022/01/10 07:52:40;;;;;;;33.13;18.80;;;1.00;99.90;;;;;;2610626;46;20438;-80
2022/01/10 07:55:06;;;;;;;29.77;20.30;;;1.30;99.90;;;;;;2608807;39;20988;-81
2022/01/10 07:57:32;;;;;;;29.63;19.10;;;1.30;99.90;;;;;;2611506;54;20157;-81
2022/01/10 07:59:58;;;;;;;39.63;19.43;;;1.20;99.90;;;;;;2609002;54;20514;-80
2022/01/10 08:02:25;;;;;;;36.37;20.83;;;1.40;99.90;;;;;;2608194;54;20149;-82
2022/01/10 08:04:51;;;;;;;33.60;19.20;;;1.50;99.90;;;;;;2611848;54;20158;-81
2022/01/10 08:07:17;;;;;;;26.23;18.07;;;1.80;99.90;;;;;;2611392;54;21059;-79
2022/01/10 08:09:43;;;;;;;30.13;20.80;;;1.90;99.90;;;;;;2611919;39;21306;-78
2022/01/10 08:12:09;;;;;;;46.63;22.13;;;1.70;99.90;;;;;;2611911;54;20403;-81
2022/01/10 08:14:36;;;;;;;27.90;18.77;;;1.20;99.90;;;;;;2611735;54;20394;-78
2022/01/10 08:17:03;;;;;;;31.90;19.50;;;1.50;99.90;;;;;;2612431;54;20410;-81
2022/01/10 08:19:31;;;;;;;36.73;21.67;;;1.90;99.90;;;;;;2610486;47;20426;-81
2022/01/10 08:21:57;;;;;;;47.23;28.53;;;1.90;99.90;;;;;;2610874;47;20416;-81
2022/01/10 08:24:24;;;;;;;32.27;21.37;;;1.90;99.90;;;;;;2612614;54;20457;-82
2022/01/10 08:26:51;;;;;;;54.17;21.10;;;1.80;99.90;;;;;;2608959;47;20511;-82
2022/01/10 08:29:17;;;;;;;35.47;21.17;;;1.50;99.90;;;;;;2611240;47;20970;-81
2022/01/10 08:31:43;;;;;;;48.70;27.80;;;1.60;99.90;;;;;;2611919;47;20424;-82
2022/01/10 08:34:08;;;;;;;32.40;23.23;;;1.90;99.90;;;;;;2611578;47;20415;-79
2022/01/10 08:36:34;;;;;;;42.83;20.23;;;2.20;99.90;;;;;;2609689;54;20390;-82
2022/01/10 08:39:01;;;;;;;40.00;23.77;;;2.40;99.90;;;;;;2610692;54;20146;-81
2022/01/10 08:41:27;;;;;;;37.97;22.40;;;2.30;99.90;;;;;;2611065;39;20912;-82
2022/01/10 08:43:53;;;;;;;35.67;22.00;;;2.50;99.90;;;;;;2612867;54;20411;-81
2022/01/10 08:46:21;;;;;;;39.53;22.57;;;2.90;99.90;;;;;;2612274;47;20426;-80
2022/01/10 08:48:49;;;;;;;37.47;21.90;;;3.00;99.90;;;;;;2610304;47;20695;-80
2022/01/10 08:51:16;;;;;;;36.80;24.10;;;3.40;99.90;;;;;;2644473;36;20469;-83
2022/01/10 08:53:41;;;;;;;46.83;24.53;;;4.00;99.90;;;;;;2608654;54;20463;-80
2022/01/10 08:56:10;;;;;;;42.23;24.30;;;4.40;99.90;;;;;;2611844;54;20400;-80
2022/01/10 08:58:37;;;;;;;38.20;23.27;;;4.30;99.90;;;;;;2612309;47;20431;-79
2022/01/10 09:01:05;;;;;;;33.43;24.20;;;5.20;99.90;;;;;;2611884;46;20452;-80
2022/01/10 09:03:32;;;;;;;39.20;22.20;;;5.70;99.90;;;;;;2610013;51;20423;-81
2022/01/10 09:05:58;;;;;;;36.10;20.93;;;6.00;99.90;;;;;;2611482;47;20434;-80
2022/01/10 09:08:28;;;;;;;42.70;22.30;;;6.00;99.90;;;;;;2609193;54;20408;-82
2022/01/10 09:10:54;;;;;;;36.33;22.77;;;5.50;99.90;;;;;;2610712;39;21423;-83
2022/01/10 09:13:20;;;;;;;51.50;25.17;;;5.70;99.90;;;;;;2611199;47;20427;-81
2022/01/10 09:15:47;;;;;;;43.80;22.83;;;6.40;99.90;;;;;;2610893;54;20399;-81
2022/01/10 09:18:16;;;;;;;47.97;24.63;;;7.20;99.90;;;;;;2611583;47;21450;-82
2022/01/10 09:20:43;;;;;;;43.20;22.50;;;7.80;99.90;;;;;;2608776;47;20432;-80
2022/01/10 09:23:09;;;;;;;39.13;20.33;;;8.00;99.90;;;;;;2610146;47;21002;-81
2022/01/10 09:25:36;;;;;;;34.27;20.97;;;8.00;99.90;;;;;;2611459;47;20586;-78
2022/01/10 09:28:02;;;;;;;37.80;20.10;;;8.30;99.90;;;;;;2608977;47;20968;-80
2022/01/10 09:30:29;;;;;;;40.37;19.53;;;7.20;99.90;;;;;;2609474;46;20430;-79
2022/01/10 09:32:54;;;;;;;35.50;19.20;;;6.60;99.90;;;;;;2609496;54;20397;-81
2022/01/10 09:35:21;;;;;;;43.03;20.40;;;5.90;99.90;;;;;;2611236;54;20416;-80
2022/01/10 09:37:49;;;;;;;44.93;21.03;;;5.90;99.90;;;;;;2611564;47;20424;-81
2022/01/10 09:40:18;;;;;;;35.23;23.20;;;5.70;99.90;;;;;;2609826;47;20428;-81
2022/01/10 09:42:47;;;;;;;35.67;20.97;;;6.70;99.90;;;;;;2611726;47;20424;-80
2022/01/10 09:45:13;;;;;;;29.43;22.30;;;7.50;99.90;;;;;;2608927;47;20427;-79
2022/01/10 09:47:39;;;;;;;113.03;59.27;;;7.60;99.90;;;;;;2610142;46;20423;-81
2022/01/10 09:50:08;;;;;;;43.00;24.83;;;8.10;99.90;;;;;;2609590;54;20403;-82
2022/01/10 09:52:35;;;;;;;45.43;22.43;;;8.90;99.90;;;;;;2609678;47;20436;-80
2022/01/10 09:55:00;;;;;;;40.07;20.60;;;8.60;99.90;;;;;;2610703;54;21212;-80
2022/01/10 09:57:26;;;;;;;41.57;19.53;;;9.70;99.90;;;;;;2611414;47;20424;-81
2022/01/10 09:59:52;;;;;;;32.87;21.23;;;10.20;99.90;;;;;;2609320;39;21403;-82
2022/01/10 10:02:18;;;;;;;31.30;18.00;;;11.00;99.90;;;;;;2609434;39;20825;-81
2022/01/10 10:04:44;;;;;;;26.50;16.80;;;12.60;99.90;;;;;;2611273;54;20427;-78
2022/01/10 10:07:11;;;;;;;39.83;17.43;;;14.30;99.90;;;;;;2609797;47;21337;-81
2022/01/10 10:09:37;;;;;;;26.40;16.83;;;14.60;74.90;;;;;;2609505;46;20434;-80
2022/01/10 10:12:04;;;;;;;37.03;18.20;;;13.80;58.30;;;;;;2609852;47;20441;-80
2022/01/10 10:14:31;;;;;;;25.37;18.10;;;11.90;92.50;;;;;;2610195;54;20506;-80
2022/01/10 10:17:07;;;;;;;26.30;15.47;;;11.50;81.10;;;;;;2608995;47;20438;-82
2022/01/10 10:19:34;;;;;;;28.43;16.70;;;9.80;99.90;;;;;;2608920;47;21553;-81
2022/01/10 10:22:00;;;;;;;29.80;15.80;;;8.70;99.90;;;;;;2610457;46;20530;-79
2022/01/10 10:24:26;;;;;;;28.03;16.87;;;9.60;99.90;;;;;;2608183;47;20996;-79
2022/01/10 10:26:53;;;;;;;30.03;14.57;;;10.20;99.90;;;;;;2610556;54;20496;-79
2022/01/10 10:29:20;;;;;;;27.70;15.93;;;10.40;99.90;;;;;;2609795;47;21090;-81
2022/01/10 10:31:52;;;;;;;27.70;17.57;;;9.70;99.90;;;;;;2610230;54;20436;-81
2022/01/10 10:34:22;;;;;;;25.17;14.70;;;7.50;99.90;;;;;;2611321;54;20419;-79
2022/01/10 10:37:07;;;;;;;23.83;14.07;;;7.70;99.90;;;;;;2609766;54;20427;-82
2022/01/10 10:39:38;;;;;;;29.80;15.63;;;7.70;99.90;;;;;;2611077;39;20841;-80
2022/01/10 10:42:09;;;;;;;27.33;14.00;;;9.80;99.90;;;;;;2609748;47;20531;-80
2022/01/10 10:44:36;;;;;;;25.40;13.53;;;11.40;99.90;;;;;;2608902;47;20523;-79
2022/01/10 10:47:03;;;;;;;27.80;14.63;;;12.20;91.50;;;;;;2608657;54;20423;-79
2022/01/10 10:49:38;;;;;;;21.53;13.73;;;12.20;91.30;;;;;;2610077;47;20419;-80
2022/01/10 10:52:07;;;;;;;32.57;14.43;;;10.40;99.90;;;;;;2611304;54;20428;-81
2022/01/10 10:54:38;;;;;;;12.40;9.50;;;9.80;99.90;;;;;;2610296;54;20431;-81
2022/01/10 10:57:08;;;;;;;28.23;13.30;;;8.90;99.90;;;;;;2609785;54;20471;-79
2022/01/10 10:59:43;;;;;;;30.87;14.73;;;8.70;99.90;;;;;;2607844;47;20435;-80
2022/01/10 11:02:10;;;;;;;18.27;13.23;;;10.50;99.90;;;;;;2610892;51;20422;-79
2022/01/10 11:04:36;;;;;;;21.07;12.80;;;12.20;92.60;;;;;;2609770;47;20450;-81
2022/01/10 11:07:03;;;;;;;19.30;10.97;;;11.10;99.90;;;;;;2610070;47;21075;-80
2022/01/10 11:09:29;;;;;;;16.43;10.80;;;11.60;96.50;;;;;;2611179;54;20515;-78
2022/01/10 11:11:55;;;;;;;25.50;13.80;;;11.80;94.80;;;;;;2609216;47;20438;-80
2022/01/10 11:14:24;;;;;;;18.73;7.70;;;11.50;96.80;;;;;;2610390;54;21016;-81
2022/01/10 11:16:52;;;;;;;25.37;12.70;;;11.30;95.20;;;;;;2608065;47;20515;-82
2022/01/10 11:19:24;;;;;;;20.90;12.77;;;9.60;99.90;;;;;;2609044;47;20439;-82
2022/01/10 11:22:03;;;;;;;17.83;11.53;;;11.10;99.90;;;;;;2607814;47;20468;-80
2022/01/10 11:24:50;;;;;;;20.90;11.50;;;12.00;95.10;;;;;;2610941;54;20443;-81
2022/01/10 11:27:42;;;;;;;19.57;11.30;;;11.00;98.70;;;;;;2609956;54;20406;-81
2022/01/10 11:30:49;;;;;;;24.60;11.27;;;10.80;99.90;;;;;;2610180;47;20453;-79
2022/01/10 11:33:22;;;;;;;19.37;10.37;;;11.20;99.90;;;;;;2609788;47;21184;-83
2022/01/10 11:36:03;;;;;;;14.10;9.90;;;12.40;85.80;;;;;;2610081;47;20441;-82
2022/01/10 11:38:48;;;;;;;17.57;11.23;;;13.30;69.90;;;;;;2612405;54;20420;-83
2022/01/10 11:41:19;;;;;;;22.80;11.00;;;12.60;82.50;;;;;;2612359;47;20460;-80
2022/01/10 11:44:01;;;;;;;22.57;12.13;;;13.80;64.60;;;;;;2614803;39;21183;-80
2022/01/10 11:46:44;;;;;;;22.33;11.40;;;13.40;63.50;;;;;;2615596;54;20476;-81
2022/01/10 11:49:10;;;;;;;21.90;9.40;;;13.40;65.10;;;;;;2617483;47;21126;-80
2022/01/10 11:51:45;;;;;;;20.70;10.37;;;12.80;73.70;;;;;;2616259;54;20414;-78
2022/01/10 11:54:26;;;;;;;19.50;10.40;;;11.00;98.00;;;;;;2618553;54;20162;-80
2022/01/10 11:57:00;;;;;;;16.50;10.70;;;11.60;92.90;;;;;;2613260;47;20446;-80
2022/01/10 11:59:37;;;;;;;16.70;10.70;;;11.80;91.00;;;;;;2610307;47;20419;-80
2022/01/10 12:02:10;;;;;;;14.27;9.83;;;13.30;71.20;;;;;;2612858;54;20404;-79
2022/01/10 12:04:42;;;;;;;15.30;10.97;;;14.60;52.00;;;;;;2611282;47;20806;-80
2022/01/10 12:07:12;;;;;;;16.67;10.40;;;12.90;72.40;;;;;;2611122;54;20412;-81
2022/01/10 12:09:40;;;;;;;19.10;10.63;;;14.10;63.00;;;;;;2610560;47;20542;-81
2022/01/10 12:12:12;;;;;;;15.17;10.80;;;14.70;51.80;;;;;;2606797;47;20424;-80
2022/01/10 12:14:38;;;;;;;18.20;10.73;;;14.30;51.90;;;;;;2610812;39;20811;-81
2022/01/10 12:17:05;;;;;;;22.40;11.37;;;16.10;43.70;;;;;;2610514;47;20439;-81
2022/01/10 12:19:31;;;;;;;14.20;10.70;;;15.30;45.70;;;;;;2610358;47;20443;-81
2022/01/10 12:21:58;;;;;;;24.67;12.10;;;13.00;67.70;;;;;;2608440;47;20412;-82
2022/01/10 12:24:24;;;;;;;25.50;10.00;;;12.70;78.50;;;;;;2609525;47;20190;-80
2022/01/10 12:26:50;;;;;;;22.93;11.60;;;14.60;56.70;;;;;;2611021;47;20568;-83
2022/01/10 12:29:16;;;;;;;19.40;10.07;;;15.60;46.60;;;;;;2609021;47;20550;-83
2022/01/10 12:31:45;;;;;;;22.20;10.80;;;17.00;36.60;;;;;;2608478;47;20428;-81
2022/01/10 12:34:12;;;;;;;18.27;10.20;;;16.10;41.40;;;;;;2610842;54;20448;-80
2022/01/10 12:36:40;;;;;;;25.00;10.97;;;17.10;38.40;;;;;;2610584;47;20454;-78
2022/01/10 12:39:16;;;;;;;18.40;9.10;;;17.50;37.80;;;;;;2607883;39;21379;-81
2022/01/10 12:41:42;;;;;;;16.03;8.77;;;18.20;32.50;;;;;;2611065;47;20437;-81
2022/01/10 12:44:08;;;;;;;15.50;8.17;;;18.40;32.00;;;;;;2610893;54;20435;-82
2022/01/10 12:46:34;;;;;;;17.93;8.27;;;17.30;33.00;;;;;;2611263;51;20470;-80
2022/01/10 12:49:06;;;;;;;14.87;8.93;;;15.60;44.60;;;;;;2610338;47;20419;-82
2022/01/10 12:51:35;;;;;;;15.70;7.83;;;16.80;36.40;;;;;;2608162;47;20518;-79